Time;durP1;ratioP1;P1;durP2;ratioP2;P2;SDS_P1;SDS_P2;PMS_P1;PMS_P2;Temp;Humidity;BMP_temperature;BMP_pressure;BME280_temperature;BME280_humidity;BME280_pressure;Samples;Min_cycle;Max_cycle;Signal;HPM_P1;HPM_P2
2023/06/21 00:01:00;;;;;;;48.92;40.42;;;;;;;36.84;32.81;100751.41;5033860;28;20384;-61
2023/06/21 00:03:27;;;;;;;51.63;40.60;;;;;;;36.61;33.27;100752.28;5033883;28;20503;-61
2023/06/21 00:05:54;;;;;;;51.00;41.83;;;;;;;36.71;32.86;100752.53;5033518;28;20061;-61
2023/06/21 00:08:21;;;;;;;46.67;40.60;;;;;;;36.83;32.94;100749.75;5034158;28;20064;-61
2023/06/21 00:10:49;;;;;;;44.65;39.58;;;;;;;36.89;32.83;100753.44;5033168;28;20369;-61
2023/06/21 00:13:15;;;;;;;51.20;43.00;;;;;;;37.17;32.31;100751.75;5033244;28;20133;-61
2023/06/21 00:15:42;;;;;;;52.20;41.13;;;;;;;37.19;32.34;100752.31;5032427;28;20041;-61
2023/06/21 00:18:08;;;;;;;46.65;40.05;;;;;;;37.14;32.22;100750.31;5032986;28;20045;-61
2023/06/21 00:20:37;;;;;;;48.50;39.70;;;;;;;37.09;32.33;100756.59;5033790;28;20049;-61
2023/06/21 00:23:03;;;;;;;54.00;39.55;;;;;;;36.86;32.76;100770.44;5033550;28;20087;-61
2023/06/21 00:25:30;;;;;;;50.45;41.72;;;;;;;37.03;32.55;100782.34;5033235;28;20124;-62
2023/06/21 00:27:56;;;;;;;47.60;41.15;;;;;;;37.01;32.85;100784.53;5033399;28;20056;-61
2023/06/21 00:30:23;;;;;;;49.75;41.33;;;;;;;37.15;32.63;100784.22;5032764;28;20045;-61
2023/06/21 00:32:50;;;;;;;57.30;44.65;;;;;;;36.89;32.62;100775.47;5027177;28;20112;-61
2023/06/21 00:35:16;;;;;;;52.05;43.60;;;;;;;37.26;32.62;100781.44;5032475;28;20343;-62
2023/06/21 00:37:44;;;;;;;49.33;42.33;;;;;;;37.43;31.88;100781.47;5033226;28;20156;-61
2023/06/21 00:40:14;;;;;;;50.88;42.47;;;;;;;38.16;30.78;100762.28;5033198;28;20473;-62
2023/06/21 00:42:40;;;;;;;51.40;42.30;;;;;;;37.33;32.03;100769.44;5033110;28;20099;-61
2023/06/21 00:45:15;;;;;;;51.10;42.00;;;;;;;37.11;32.16;100754.41;5033225;28;20548;-62
2023/06/21 00:47:42;;;;;;;50.53;42.00;;;;;;;37.17;32.20;100749.00;5033692;28;20107;-61
2023/06/21 00:50:09;;;;;;;50.75;41.05;;;;;;;37.19;32.57;100749.56;5033104;28;20505;-62
2023/06/21 00:52:37;;;;;;;53.67;42.13;;;;;;;37.28;32.09;100745.38;5032962;28;20532;-61
2023/06/21 00:55:05;;;;;;;47.55;41.45;;;;;;;36.89;32.56;100740.47;5030667;28;20073;-61
2023/06/21 00:57:33;;;;;;;45.28;39.35;;;;;;;37.17;32.49;100754.50;5028852;28;20122;-62
2023/06/21 00:59:59;;;;;;;49.00;41.97;;;;;;;37.14;32.39;100744.81;5015980;28;20054;-62
2023/06/21 01:02:26;;;;;;;46.92;39.42;;;;;;;37.33;32.27;100741.88;5015745;28;20045;-61
2023/06/21 01:04:53;;;;;;;51.42;41.58;;;;;;;37.24;32.27;100756.06;5032491;28;20046;-61
2023/06/21 01:07:37;;;;;;;51.03;42.38;;;;;;;37.32;31.97;100746.53;5032521;28;20128;-62
2023/06/21 01:10:16;;;;;;;45.78;40.00;;;;;;;37.27;32.09;100743.69;5027499;28;20045;-62
2023/06/21 01:13:09;;;;;;;49.00;41.28;;;;;;;37.46;31.69;100747.88;5032858;28;20481;-62
2023/06/21 01:15:43;;;;;;;49.63;41.78;;;;;;;37.52;31.53;100750.72;5012327;28;20133;-61
2023/06/21 01:18:14;;;;;;;47.42;40.05;;;;;;;37.54;31.71;100748.59;5016367;28;20073;-62
2023/06/21 01:20:41;;;;;;;48.05;39.47;;;;;;;37.56;31.79;100746.41;5032481;28;20526;-62
2023/06/21 01:23:20;;;;;;;49.15;40.10;;;;;;;37.53;31.83;100746.91;5032647;28;20140;-62
2023/06/21 01:25:46;;;;;;;46.30;37.40;;;;;;;37.47;31.28;100738.56;5032322;28;20132;-62
2023/06/21 01:28:31;;;;;;;47.20;40.28;;;;;;;37.40;31.62;100732.34;5048400;28;20140;-62
2023/06/21 01:30:59;;;;;;;47.92;40.58;;;;;;;37.48;31.36;100734.69;5051479;28;20419;-63
2023/06/21 01:33:28;;;;;;;44.90;39.85;;;;;;;37.57;31.44;100737.88;5032936;28;20058;-62
2023/06/21 01:35:55;;;;;;;48.75;40.17;;;;;;;37.60;31.60;100742.91;5031714;28;20128;-62
2023/06/21 01:38:24;;;;;;;49.28;39.83;;;;;;;37.27;31.81;100746.44;5018692;28;20049;-62
2023/06/21 01:40:50;;;;;;;47.83;41.30;;;;;;;37.39;31.87;100727.94;5032619;28;20063;-62
2023/06/21 01:43:18;;;;;;;52.88;43.35;;;;;;;37.53;31.73;100730.38;5032456;28;20085;-62
2023/06/21 01:45:46;;;;;;;48.75;40.38;;;;;;;37.71;31.18;100727.38;5030899;28;20050;-62
2023/06/21 01:48:14;;;;;;;47.35;39.78;;;;;;;37.93;30.99;100729.38;5031757;28;20049;-62
2023/06/21 01:50:41;;;;;;;45.80;38.95;;;;;;;38.06;30.76;100737.28;5032331;28;20414;-62
2023/06/21 01:53:10;;;;;;;50.97;41.63;;;;;;;38.04;30.99;100733.94;5032176;28;20137;-62
2023/06/21 01:55:36;;;;;;;50.53;42.35;;;;;;;37.72;31.62;100740.09;5031056;28;20046;-62
2023/06/21 01:58:04;;;;;;;55.42;43.55;;;;;;;37.64;31.77;100748.75;5031783;28;20080;-62
2023/06/21 02:00:30;;;;;;;51.75;40.88;;;;;;;37.59;31.54;100762.44;5032501;28;20068;-61
2023/06/21 02:03:03;;;;;;;53.53;44.47;;;;;;;37.36;32.78;100780.78;5032356;28;20041;-61
2023/06/21 02:05:31;;;;;;;55.55;44.85;;;;;;;35.91;34.72;100814.50;5034717;28;20051;-61
2023/06/21 02:08:00;;;;;;;58.58;46.22;;;;;;;35.37;36.17;100824.59;5052646;28;20061;-60
2023/06/21 02:10:27;;;;;;;57.17;45.53;;;;;;;36.77;34.24;100821.44;5052238;28;20075;-60
2023/06/21 02:12:54;;;;;;;56.67;46.83;;;;;;;37.10;84.97;100831.78;5052500;28;20128;-60
2023/06/21 02:15:20;;;;;;;72.40;51.90;;;;;;;35.18;48.87;100832.88;5048813;28;20049;-59
2023/06/21 02:18:48;;;;;;;73.13;54.78;;;;;;;-145.07;100.00;61000.34;5032365;28;20436;-58
2023/06/21 02:22:15;;;;;;;66.90;53.95;;;;;;;-145.07;100.00;61000.34;5032570;28;20071;-58
2023/06/21 02:25:40;;;;;;;75.53;56.25;;;;;;;-145.07;100.00;61000.34;5031432;28;20076;-58
2023/06/21 02:28:20;;;;;;;92.05;63.05;;;;;;;35.18;48.87;100832.88;5031653;28;20049;-59
2023/06/21 02:30:47;;;;;;;98.35;64.90;;;;;;;32.69;59.69;100814.91;5032006;28;20057;-58
2023/06/21 02:33:13;;;;;;;92.72;62.50;;;;;;;32.63;48.29;100821.22;5012491;28;20066;-58
2023/06/21 02:35:40;;;;;;;81.28;59.33;;;;;;;34.11;43.56;100828.47;5021262;28;20045;-59
2023/06/21 02:38:07;;;;;;;88.93;62.25;;;;;;;33.82;43.65;100819.00;5032261;28;20058;-59
2023/06/21 02:40:33;;;;;;;88.60;66.78;;;;;;;34.24;41.78;100815.75;5034236;28;20057;-59
2023/06/21 02:43:00;;;;;;;84.40;62.08;;;;;;;34.59;41.68;100809.69;5041605;28;20045;-59
2023/06/21 02:45:26;;;;;;;83.28;63.28;;;;;;;34.85;40.79;100803.91;5033740;28;20056;-59
2023/06/21 02:47:53;;;;;;;96.78;68.72;;;;;;;35.21;40.55;100793.97;5035431;28;20049;-58
2023/06/21 02:50:19;;;;;;;96.63;71.43;;;;;;;35.34;39.88;100794.84;5035461;28;20096;-58
2023/06/21 02:52:46;;;;;;;86.97;65.45;;;;;;;34.73;41.00;100775.56;5034285;28;20553;-58
2023/06/21 02:55:12;;;;;;;87.30;64.80;;;;;;;34.09;42.07;100775.75;5028748;28;20054;-58
2023/06/21 02:57:39;;;;;;;89.65;67.45;;;;;;;34.87;40.75;100760.59;5034872;28;20055;-58
2023/06/21 03:00:17;;;;;;;90.03;66.95;;;;;;;34.68;40.46;100756.19;5034904;28;20116;-59
2023/06/21 03:02:44;;;;;;;98.32;68.78;;;;;;;34.97;40.04;100761.94;5034871;28;20132;-58
2023/06/21 03:05:14;;;;;;;89.90;67.95;;;;;;;34.86;40.24;100761.66;5033463;28;20069;-57
2023/06/21 03:07:43;;;;;;;90.82;67.25;;;;;;;33.78;42.41;100777.50;5031477;28;20151;-58
2023/06/21 03:10:14;;;;;;;87.20;65.30;;;;;;;34.10;42.02;100784.81;5022601;28;20060;-58
2023/06/21 03:12:42;;;;;;;98.47;70.65;;;;;;;35.09;39.97;100779.31;5035107;28;20126;-58
2023/06/21 03:15:10;;;;;;;89.32;67.07;;;;;;;35.16;39.49;100791.03;5029978;28;20052;-58
2023/06/21 03:17:39;;;;;;;95.15;68.53;;;;;;;35.22;39.64;100798.34;5014758;28;20057;-59
2023/06/21 03:20:10;;;;;;;92.35;66.22;;;;;;;35.29;39.08;100793.66;5017022;28;20057;-58
2023/06/21 03:22:37;;;;;;;;;;;;;;;35.42;39.05;100794.53;5035156;28;20132;-57
2023/06/21 03:25:04;;;;;;;83.50;61.95;;;;;;;35.47;38.85;100786.41;5034039;28;19925;-58
2023/06/21 03:27:30;;;;;;;96.65;66.90;;;;;;;35.09;39.63;100779.31;5034341;28;20132;-58
2023/06/21 03:29:57;;;;;;;89.15;67.53;;;;;;;35.59;38.66;100784.53;5034038;28;20060;-58
2023/06/21 03:32:24;;;;;;;101.32;69.35;;;;;;;35.15;39.38;100778.41;5021456;28;20064;-58
2023/06/21 03:34:50;;;;;;;95.30;68.38;;;;;;;35.50;39.25;100785.94;5014392;28;20053;-58
2023/06/21 03:37:17;;;;;;;84.55;65.13;;;;;;;34.92;39.65;100790.94;5014613;28;20272;-58
2023/06/21 03:39:43;;;;;;;89.70;68.30;;;;;;;35.44;38.75;100795.13;5032470;28;20057;-58
2023/06/21 03:42:10;;;;;;;86.82;64.07;;;;;;;35.04;39.68;100809.38;5033855;28;20160;-59
2023/06/21 03:44:36;;;;;;;95.03;69.00;;;;;;;34.89;39.71;100813.38;5033285;28;20454;-58
2023/06/21 03:47:03;;;;;;;93.32;67.70;;;;;;;35.49;38.40;100825.47;5033533;28;20041;-59
2023/06/21 03:49:30;;;;;;;90.95;68.25;;;;;;;35.06;39.19;100813.56;5033774;28;20144;-59
2023/06/21 03:51:56;;;;;;;92.43;67.57;;;;;;;35.28;39.02;100818.63;5033920;28;20045;-58
2023/06/21 03:54:23;;;;;;;91.90;68.63;;;;;;;35.41;38.43;100825.81;5033439;28;20144;-58
2023/06/21 03:56:49;;;;;;;96.15;67.45;;;;;;;35.35;37.93;100832.25;5033969;28;20049;-58
2023/06/21 03:59:16;;;;;;;97.32;71.55;;;;;;;35.55;38.44;100831.97;5032799;28;20049;-58
2023/06/21 04:01:42;;;;;;;89.25;67.50;;;;;;;35.04;39.02;100826.69;5033859;28;20056;-59
2023/06/21 04:04:09;;;;;;;96.70;70.70;;;;;;;34.93;39.14;100842.06;5016292;28;20060;-60
2023/06/21 04:06:37;;;;;;;92.97;66.50;;;;;;;34.93;39.53;100842.06;5020429;28;20077;-59
2023/06/21 04:09:03;;;;;;;89.70;67.50;;;;;;;34.83;39.75;100858.19;5033367;28;20580;-58
2023/06/21 04:11:30;;;;;;;99.38;70.80;;;;;;;34.55;39.89;100869.66;5032931;28;20068;-58
2023/06/21 04:13:56;;;;;;;96.72;69.60;;;;;;;33.26;42.65;100872.63;5033483;28;20502;-59
2023/06/21 04:16:23;;;;;;;95.88;72.00;;;;;;;33.41;42.75;100878.66;5032873;28;20041;-58
2023/06/21 04:18:49;;;;;;;97.28;70.75;;;;;;;33.56;42.24;100880.28;5033586;28;20515;-59
2023/06/21 04:21:16;;;;;;;91.35;70.70;;;;;;;33.00;43.47;100882.59;5031734;28;20053;-59
2023/06/21 04:23:42;;;;;;;97.28;73.28;;;;;;;33.07;43.36;100883.44;5025511;28;20050;-59
2023/06/21 04:26:09;;;;;;;97.13;72.70;;;;;;;33.33;43.32;100891.78;5012743;28;20085;-58
2023/06/21 04:28:35;;;;;;;103.82;76.15;;;;;;;33.76;42.22;100897.47;5013952;28;20161;-59
2023/06/21 04:31:02;;;;;;;100.88;74.85;;;;;;;33.10;43.56;100888.47;5021309;28;20461;-59
2023/06/21 04:33:28;;;;;;;100.32;74.47;;;;;;;33.80;41.48;100901.44;5020402;28;20060;-59
2023/06/21 04:35:55;;;;;;;101.10;75.60;;;;;;;33.38;42.62;100901.03;5032598;28;20128;-59
2023/06/21 04:38:22;;;;;;;99.25;75.38;;;;;;;33.13;43.26;100892.66;5032900;28;20433;-59
2023/06/21 04:40:52;;;;;;;94.07;71.70;;;;;;;35.00;39.83;100899.63;5032353;28;20053;-59
2023/06/21 04:43:21;;;;;;;97.95;73.82;;;;;;;34.94;39.33;100906.03;5032748;28;20071;-59
2023/06/21 04:45:48;;;;;;;91.05;71.45;;;;;;;34.61;39.73;100898.09;5031997;28;20381;-58
2023/06/21 04:48:15;;;;;;;95.90;73.45;;;;;;;34.70;39.93;100904.97;5032527;28;20049;-59
2023/06/21 04:50:45;;;;;;;94.40;69.88;;;;;;;34.89;39.73;100914.94;5032223;28;20064;-59
2023/06/21 04:53:12;;;;;;;92.95;71.90;;;;;;;35.77;37.99;100923.00;5032477;28;20049;-58
2023/06/21 04:55:42;;;;;;;93.57;68.75;;;;;;;35.44;38.43;100935.25;5032306;28;20060;-58
2023/06/21 04:58:09;;;;;;;90.93;69.65;;;;;;;35.96;38.20;100932.84;5032275;28;20355;-58
2023/06/21 05:00:36;;;;;;;95.70;71.85;;;;;;;35.82;38.10;100928.66;5032189;28;20059;-59
2023/06/21 05:03:03;;;;;;;95.80;69.82;;;;;;;36.36;37.12;100948.78;5031962;28;20240;-58
2023/06/21 05:05:30;;;;;;;91.38;68.43;;;;;;;35.03;39.46;100962.31;5032356;28;20056;-59
2023/06/21 05:08:00;;;;;;;83.57;65.20;;;;;;;35.41;39.44;100968.69;5032387;28;20049;-59
2023/06/21 05:10:26;;;;;;;85.30;67.38;;;;;;;35.66;38.93;100961.16;5031619;28;20488;-59
2023/06/21 05:12:53;;;;;;;96.10;67.88;;;;;;;35.35;39.23;100972.38;5031941;28;20053;-60
2023/06/21 05:15:20;;;;;;;87.13;66.35;;;;;;;35.79;38.23;100975.84;5032152;28;20054;-58
2023/06/21 05:17:46;;;;;;;86.47;66.82;;;;;;;36.18;37.79;100979.09;5030966;28;20063;-58
2023/06/21 05:20:13;;;;;;;87.88;68.78;;;;;;;36.43;37.32;100978.09;5030894;28;20049;-58
2023/06/21 05:22:42;;;;;;;81.25;65.43;;;;;;;36.32;37.73;100986.09;5031340;28;20130;-58
2023/06/21 05:25:09;;;;;;;84.03;65.50;;;;;;;36.02;38.43;100986.09;5031838;28;20365;-58
2023/06/21 05:27:36;;;;;;;83.15;63.97;;;;;;;36.02;37.95;100986.94;5031297;28;20092;-58
2023/06/21 05:30:03;;;;;;;76.47;60.25;;;;;;;36.15;37.92;100996.91;5031909;28;20081;-58
2023/06/21 05:33:28;;;;;;;70.85;56.97;;;;;;;-145.07;100.00;61000.34;5031463;28;20144;-58
2023/06/21 05:36:53;;;;;;;72.50;57.05;;;;;;;-145.07;100.00;61000.34;5031278;28;20347;-58
2023/06/21 05:39:19;;;;;;;74.88;56.85;;;;;;;32.98;43.65;101001.59;5031879;28;20053;-58
2023/06/21 05:41:46;;;;;;;73.47;55.10;;;;;;;34.41;40.60;101003.38;5031803;28;20089;-59
2023/06/21 05:44:13;;;;;;;68.65;54.25;;;;;;;34.71;40.04;101000.00;5031865;28;20136;-58
2023/06/21 05:46:39;;;;;;;67.38;54.05;;;;;;;35.61;38.66;101002.25;5031923;28;20140;-59
2023/06/21 05:49:06;;;;;;;66.22;52.30;;;;;;;34.10;41.13;100996.81;5031517;28;20057;-58
2023/06/21 05:51:32;;;;;;;69.85;52.17;;;;;;;33.93;42.08;100992.91;5031725;28;20053;-60
2023/06/21 05:53:59;;;;;;;66.78;52.47;;;;;;;34.31;41.30;100997.53;5031893;28;20049;-58
2023/06/21 05:56:27;;;;;;;62.03;50.17;;;;;;;33.99;41.40;100986.56;5031612;28;20071;-60
2023/06/21 05:58:54;;;;;;;63.00;47.78;;;;;;;35.78;38.02;100982.41;5030822;28;20045;-58
2023/06/21 06:01:20;;;;;;;50.78;40.88;;;;;;;35.06;39.09;100985.75;5031488;28;20565;-60
2023/06/21 06:03:51;;;;;;;56.35;43.33;;;;;;;36.34;37.20;100978.44;5030814;28;20045;-59
2023/06/21 06:06:18;;;;;;;60.17;46.42;;;;;;;36.18;37.35;100982.69;5030895;28;20136;-59
2023/06/21 06:08:45;;;;;;;44.72;34.88;;;;;;;36.84;35.67;100987.38;5029984;28;20358;-59
2023/06/21 06:11:11;;;;;;;49.67;38.38;;;;;;;37.04;35.44;100987.00;5031442;28;20115;-59
2023/06/21 06:13:38;;;;;;;48.40;38.00;;;;;;;37.18;35.42;101004.97;5031699;28;20390;-60
2023/06/21 06:16:05;;;;;;;47.10;36.60;;;;;;;35.88;37.00;101001.94;5035239;28;20053;-59
2023/06/21 06:18:32;;;;;;;44.13;35.70;;;;;;;37.21;34.97;101010.03;5035280;28;20100;-60
2023/06/21 06:20:59;;;;;;;41.97;33.78;;;;;;;33.98;39.48;101004.88;5035379;28;20426;-60
2023/06/21 06:23:25;;;;;;;43.80;34.90;;;;;;;34.80;39.16;101012.38;5034351;28;20046;-59
2023/06/21 06:25:52;;;;;;;42.35;33.75;;;;;;;34.64;39.06;101018.41;5034990;28;20421;-60
2023/06/21 06:28:19;;;;;;;41.75;32.00;;;;;;;36.00;36.83;101011.09;5033986;28;20045;-60
2023/06/21 06:30:46;;;;;;;39.97;30.23;;;;;;;34.52;39.58;101021.03;5035476;28;20049;-60
2023/06/21 06:33:12;;;;;;;39.42;30.50;;;;;;;34.55;38.74;101018.69;5035691;28;20100;-60
2023/06/21 06:35:39;;;;;;;40.53;29.25;;;;;;;34.50;39.62;101025.91;5035607;28;20053;-60
2023/06/21 06:38:06;;;;;;;39.38;29.60;;;;;;;34.59;39.22;101031.94;5035948;28;20290;-59
2023/06/21 06:40:33;;;;;;;38.05;29.35;;;;;;;33.92;40.83;101037.81;5035400;28;20049;-60
2023/06/21 06:43:00;;;;;;;32.70;27.88;;;;;;;37.34;35.25;101033.75;5035376;28;20049;-60
2023/06/21 06:45:26;;;;;;;33.42;26.80;;;;;;;36.40;35.66;101031.69;5034944;28;20085;-59
2023/06/21 06:47:53;;;;;;;32.95;25.48;;;;;;;36.84;34.57;101037.78;5034950;28;20404;-59
2023/06/21 06:50:19;;;;;;;32.95;25.90;;;;;;;34.84;38.93;101035.59;5034669;28;20080;-59
2023/06/21 06:52:48;;;;;;;28.90;22.08;;;;;;;34.80;38.18;101037.09;5037854;28;20141;-59
2023/06/21 06:55:14;;;;;;;27.60;22.42;;;;;;;35.01;37.97;101040.50;5034417;28;20061;-59
2023/06/21 06:57:42;;;;;;;31.33;22.42;;;;;;;34.48;39.25;101037.09;5034532;28;20049;-59
2023/06/21 07:00:25;;;;;;;25.30;19.90;;;;;;;35.06;38.11;101032.44;5034227;28;20064;-59
2023/06/21 07:02:56;;;;;;;28.85;19.88;;;;;;;34.42;39.09;101035.25;5034323;28;20052;-59
2023/06/21 07:05:23;;;;;;;22.77;18.23;;;;;;;34.13;40.14;101033.91;5034555;28;20049;-59
2023/06/21 07:07:50;;;;;;;23.98;17.10;;;;;;;34.49;39.65;101046.16;5034627;28;20056;-60
2023/06/21 07:10:17;;;;;;;24.13;17.98;;;;;;;34.60;39.06;101050.09;5034131;28;20049;-59
2023/06/21 07:12:46;;;;;;;24.52;18.20;;;;;;;33.94;40.56;101052.16;5034612;28;20053;-59
2023/06/21 07:15:12;;;;;;;20.67;18.15;;;;;;;35.25;38.04;101058.88;5034240;28;20081;-61
2023/06/21 07:17:39;;;;;;;22.25;16.95;;;;;;;35.45;37.04;101063.34;5034496;28;20049;-61
2023/06/21 07:20:06;;;;;;;22.35;17.80;;;;;;;36.12;36.52;101057.88;5033981;28;20101;-60
2023/06/21 07:22:33;;;;;;;20.67;16.38;;;;;;;34.73;38.48;101064.59;5033662;28;20084;-61
2023/06/21 07:24:59;;;;;;;21.42;16.88;;;;;;;34.24;39.59;101073.56;5020421;28;20060;-60
2023/06/21 07:27:26;;;;;;;20.38;16.60;;;;;;;34.54;38.80;101076.53;5014481;28;20509;-61
2023/06/21 07:29:53;;;;;;;19.83;15.52;;;;;;;34.10;39.45;101073.59;5014701;28;20386;-61
2023/06/21 07:32:20;;;;;;;21.40;16.10;;;;;;;34.25;39.07;101076.09;5014371;28;20089;-61
2023/06/21 07:34:46;;;;;;;19.45;15.82;;;;;;;35.46;37.25;101076.03;5013946;28;20438;-61
2023/06/21 07:37:13;;;;;;;20.02;15.55;;;;;;;34.98;37.68;101087.63;5014153;28;20050;-60
2023/06/21 07:39:39;;;;;;;17.92;15.38;;;;;;;35.97;36.33;101088.56;5013999;28;20046;-61
2023/06/21 07:42:20;;;;;;;17.65;15.07;;;;;;;37.56;33.73;101077.19;5014209;28;20058;-61
2023/06/21 07:44:46;;;;;;;21.92;16.48;;;;;;;38.03;32.68;101081.78;5013923;28;20050;-60
2023/06/21 07:47:13;;;;;;;19.20;16.25;;;;;;;39.07;30.84;101091.72;5013974;28;20547;-61
2023/06/21 07:49:40;;;;;;;24.23;15.88;;;;;;;39.16;30.78;101095.72;5014345;28;20490;-61
2023/06/21 07:52:06;;;;;;;18.65;16.25;;;;;;;36.98;33.69;101099.00;5013930;28;20054;-61
2023/06/21 07:54:33;;;;;;;19.23;15.80;;;;;;;37.06;33.52;101095.88;5013606;28;20064;-61
2023/06/21 07:56:59;;;;;;;21.55;15.13;;;;;;;35.54;36.52;101099.59;5013499;28;20092;-60
2023/06/21 07:59:26;;;;;;;25.17;16.45;;;;;;;36.43;35.31;101116.53;5013641;28;20454;-61
2023/06/21 08:01:52;;;;;;;17.40;14.32;;;;;;;37.93;32.91;101115.53;5013238;28;20100;-60
2023/06/21 08:04:19;;;;;;;18.35;15.93;;;;;;;34.88;37.61;101119.16;5031151;28;20080;-60
2023/06/21 08:06:45;;;;;;;15.77;14.10;;;;;;;37.34;33.40;101118.31;5032713;28;20059;-61
2023/06/21 08:09:12;;;;;;;17.45;14.77;;;;;;;38.77;31.50;101112.19;5031763;28;20584;-60
2023/06/21 08:11:39;;;;;;;18.52;13.65;;;;;;;38.88;30.19;101119.56;5032939;28;20461;-61
2023/06/21 08:14:05;;;;;;;18.52;12.45;;;;;;;39.60;28.69;101123.50;5031839;28;20109;-60
2023/06/21 08:16:32;;;;;;;19.38;11.93;;;;;;;35.73;34.33;101125.19;5032819;28;20458;-61
2023/06/21 08:18:59;;;;;;;14.40;12.10;;;;;;;37.19;33.28;101127.03;5032886;28;20063;-63
2023/06/21 08:21:26;;;;;;;15.05;12.75;;;;;;;35.68;35.09;101127.78;5033220;28;20445;-61
2023/06/21 08:23:52;;;;;;;18.60;12.95;;;;;;;39.75;29.11;101133.09;5023571;28;20057;-62
2023/06/21 08:26:19;;;;;;;15.68;13.27;;;;;;;36.31;34.18;101130.25;5013194;28;20152;-60
2023/06/21 08:28:46;;;;;;;17.52;12.43;;;;;;;38.55;30.94;101129.47;5012788;28;20567;-61
2023/06/21 08:31:12;;;;;;;11.98;10.75;;;;;;;38.04;31.25;101133.94;5012723;28;20060;-62
2023/06/21 08:33:39;;;;;;;13.05;11.15;;;;;;;36.09;33.18;101132.59;5012814;28;20053;-62
2023/06/21 08:36:08;;;;;;;18.92;11.98;;;;;;;36.96;33.13;101128.66;5012578;28;20129;-61
2023/06/21 08:38:34;;;;;;;17.35;12.25;;;;;;;38.75;30.21;101130.94;5012083;28;20058;-60
2023/06/21 08:41:03;;;;;;;15.60;11.43;;;;;;;38.30;30.86;101140.00;5012426;28;20125;-62
2023/06/21 08:43:31;;;;;;;14.10;11.07;;;;;;;36.88;32.46;101140.03;5013142;28;20438;-60
2023/06/21 08:46:03;;;;;;;11.98;10.50;;;;;;;36.98;32.74;101143.06;5012276;28;20596;-60
2023/06/21 08:48:36;;;;;;;13.07;10.35;;;;;;;37.46;32.08;101143.97;5012592;28;20485;-60
2023/06/21 08:51:05;;;;;;;12.55;10.40;;;;;;;40.20;27.93;101154.16;5012376;28;20052;-60
2023/06/21 08:53:39;;;;;;;13.27;9.60;;;;;;;38.31;30.23;101139.78;5012730;28;20083;-60
2023/06/21 08:56:09;;;;;;;15.95;11.65;;;;;;;36.28;33.50;101152.72;5012033;28;20052;-60
2023/06/21 08:58:45;;;;;;;17.23;10.57;;;;;;;36.68;33.00;101154.91;5012852;28;20456;-61
2023/06/21 09:01:14;;;;;;;13.80;10.63;;;;;;;38.16;30.67;101165.13;5012547;28;20056;-60
2023/06/21 09:03:57;;;;;;;13.88;10.20;;;;;;;37.36;32.17;101166.63;5012148;28;20450;-60
2023/06/21 09:06:26;;;;;;;10.85;9.57;;;;;;;36.06;33.51;101162.50;5011769;28;20049;-61
2023/06/21 09:08:53;;;;;;;14.48;10.15;;;;;;;37.26;31.78;101174.66;5011994;28;21116;-61
2023/06/21 09:11:22;;;;;;;11.52;9.68;;;;;;;38.78;29.62;101160.84;5019095;28;20472;-61
2023/06/21 09:13:50;;;;;;;10.70;9.60;;;;;;;37.82;30.89;101169.63;5032242;28;20136;-61
2023/06/21 09:16:19;;;;;;;12.00;9.73;;;;;;;38.96;29.74;101178.25;5031352;28;20129;-61
2023/06/21 09:18:46;;;;;;;12.82;9.40;;;;;;;39.97;27.66;101169.94;5032109;28;20136;-61
2023/06/21 09:21:14;;;;;;;10.32;8.32;;;;;;;38.03;29.98;101176.44;5032134;28;20081;-60
2023/06/21 09:23:40;;;;;;;10.02;8.32;;;;;;;38.95;28.39;101165.53;5031635;28;20658;-60
2023/06/21 09:26:08;;;;;;;9.60;7.45;;;;;;;37.99;29.61;101172.47;5031379;28;20055;-60
2023/06/21 09:28:35;;;;;;;13.10;9.68;;;;;;;36.92;31.14;101182.56;5031458;28;20045;-61
2023/06/21 09:31:02;;;;;;;11.38;8.73;;;;;;;38.64;28.79;101173.28;5031702;28;20132;-61
2023/06/21 09:33:29;;;;;;;9.95;8.00;;;;;;;38.27;29.00;101187.41;5031783;28;20145;-60
2023/06/21 09:35:57;;;;;;;11.43;8.43;;;;;;;38.78;28.23;101190.34;5031289;28;20369;-60
2023/06/21 09:38:24;;;;;;;13.73;8.57;;;;;;;38.25;28.48;101190.41;5031406;28;20378;-60
2023/06/21 09:40:52;;;;;;;9.40;8.27;;;;;;;39.23;27.47;101184.81;5031994;28;20053;-61
2023/06/21 09:43:22;;;;;;;8.77;7.88;;;;;;;37.30;30.01;101184.09;5031476;28;20049;-60
2023/06/21 09:46:03;;;;;;;14.90;8.75;;;;;;;36.54;31.99;101197.47;5031565;28;20061;-60
2023/06/21 09:48:38;;;;;;;10.85;9.10;;;;;;;38.54;29.11;101193.22;5033092;28;20060;-61
2023/06/21 09:51:11;;;;;;;9.65;8.30;;;;;;;38.98;28.51;101203.72;5035739;28;20140;-60
2023/06/21 09:53:42;;;;;;;11.93;8.15;;;;;;;38.68;28.09;101205.69;5035867;28;20105;-60
2023/06/21 09:56:09;;;;;;;9.15;7.20;;;;;;;37.36;29.73;101196.94;5035231;28;20477;-61
2023/06/21 09:58:40;;;;;;;8.50;6.97;;;;;;;40.88;25.62;101203.66;5021040;28;20458;-60
2023/06/21 10:01:07;;;;;;;10.57;7.28;;;;;;;40.57;25.66;101208.88;5016026;28;20050;-63
2023/06/21 10:03:35;;;;;;;11.70;8.95;;;;;;;40.32;26.09;101218.53;5016668;28;20140;-63
2023/06/21 10:06:03;;;;;;;12.10;7.78;;;;;;;42.12;24.16;101209.03;5015967;28;20515;-61
2023/06/21 10:08:33;;;;;;;11.30;7.72;;;;;;;41.10;25.22;101212.75;5016121;28;20049;-61
2023/06/21 10:11:01;;;;;;;16.50;6.73;;;;;;;41.72;24.25;101213.28;5015870;28;20103;-62
2023/06/21 10:13:31;;;;;;;9.85;7.40;;;;;;;37.43;29.13;101219.69;5015954;28;20053;-62
2023/06/21 10:16:00;;;;;;;13.55;7.25;;;;;;;36.90;29.68;101223.28;5029867;28;20132;-62
2023/06/21 10:18:28;;;;;;;11.35;6.80;;;;;;;37.80;28.80;101214.00;5035119;28;20132;-61
2023/06/21 10:21:02;;;;;;;10.90;6.28;;;;;;;41.22;24.10;101225.59;5035374;28;20053;-61
2023/06/21 10:23:31;;;;;;;6.97;6.05;;;;;;;42.33;22.94;101223.03;5035019;28;20418;-62
2023/06/21 10:26:03;;;;;;;9.23;6.30;;;;;;;42.91;22.39;101223.75;5034787;28;20084;-61
2023/06/21 10:28:35;;;;;;;7.97;6.75;;;;;;;38.97;26.87;101221.38;5034840;28;20397;-61
2023/06/21 10:31:09;;;;;;;10.23;5.93;;;;;;;42.23;23.29;101220.19;5034472;28;20140;-62
2023/06/21 10:33:37;;;;;;;10.40;7.05;;;;;;;39.51;27.19;101213.50;5035042;28;20441;-62
2023/06/21 10:36:09;;;;;;;9.27;6.72;;;;;;;40.98;24.94;101220.38;5034655;28;20341;-61
2023/06/21 10:38:46;;;;;;;7.20;5.88;;;;;;;40.74;24.43;101220.69;5034651;28;20049;-62
2023/06/21 10:41:14;;;;;;;8.57;6.93;;;;;;;40.34;25.15;101230.16;5034720;28;20144;-62
2023/06/21 10:43:42;;;;;;;9.95;7.25;;;;;;;43.14;22.29;101224.31;5035253;28;20119;-62
2023/06/21 10:46:10;;;;;;;7.07;6.30;;;;;;;41.05;24.35;101222.94;5034340;28;20049;-61
2023/06/21 10:48:37;;;;;;;6.15;5.03;;;;;;;43.99;20.98;101209.78;5034340;28;20136;-61
2023/06/21 10:51:04;;;;;;;9.63;5.68;;;;;;;44.30;20.58;101215.22;5034315;28;20053;-62
2023/06/21 10:53:32;;;;;;;8.73;6.72;;;;;;;39.58;26.06;101211.41;5034575;28;20136;-61
2023/06/21 10:56:07;;;;;;;8.75;5.90;;;;;;;40.33;24.71;101222.97;5033949;28;20048;-61
2023/06/21 10:58:34;;;;;;;12.60;6.45;;;;;;;42.63;22.89;101211.19;5026628;28;20061;-61
2023/06/21 11:01:00;;;;;;;6.15;5.32;;;;;;;43.95;21.55;101214.22;5033325;28;20136;-61
2023/06/21 11:03:27;;;;;;;6.72;5.50;;;;;;;42.89;21.57;101217.59;5034389;28;20049;-62
2023/06/21 11:06:29;;;;;;;10.38;5.78;;;;;;;41.58;23.09;101218.41;5034105;28;20430;-61
2023/06/21 11:09:16;;;;;;;6.88;5.70;;;;;;;39.02;26.46;101232.50;5034320;28;20087;-62
2023/06/21 11:11:50;;;;;;;;;;;;;;;39.65;25.57;101228.66;5034872;28;20053;-62
2023/06/21 11:14:21;;;;;;;8.32;4.97;;;;;;;39.32;26.06;101225.88;5033647;28;19924;-61
2023/06/21 11:16:47;;;;;;;9.90;5.72;;;;;;;40.87;24.42;101232.47;5014409;28;20137;-61
2023/06/21 11:19:14;;;;;;;6.68;4.95;;;;;;;39.07;26.99;101240.91;5014181;28;20063;-61
2023/06/21 11:21:49;;;;;;;9.57;5.00;;;;;;;39.38;25.88;101236.78;5029630;28;20060;-62